Terminal Aerodrome Forecast
Issued by NWS Sioux Falls, SD

Home | Current Version | Previous Version | Graphics & Text | Print | Product List | Glossary Off
Versions: 1 2 3 4 5 6 7 8 9 10 11 12 13 14 15 16 17 18

000
FTUS43 KFSD 251143
TAFSUX
TAF
KSUX 251143Z 2512/2612 15010KT P6SM FEW120 WS020/21040KT
     FM251400 16012KT P6SM FEW250
     FM251900 19015G23KT P6SM FEW250
     FM260200 16011KT P6SM SCT200
     FM260900 14010KT 4SM SHRA VCTS SCT025 OVC050CB=

USA.gov is the U.S. government's official web portal to all federal, state and local government web resources and services.